createdAt,value
2023-03-29T17:45:09.276Z,65.58
2023-03-29T17:46:09.246Z,65.90
2023-03-29T17:47:09.393Z,65.42
2023-03-29T17:48:09.258Z,66.06
2023-03-29T17:49:09.175Z,65.74
2023-03-29T17:50:10.317Z,65.26
2023-03-29T17:51:10.294Z,65.26
2023-03-29T17:52:10.279Z,64.78
2023-03-29T17:53:10.293Z,65.26
2023-03-29T17:54:10.239Z,66.23
2023-03-29T17:55:10.229Z,65.90
2023-03-29T17:56:10.217Z,63.97
2023-03-29T17:57:10.227Z,62.84
2023-03-29T17:58:10.203Z,63.16
2023-03-29T17:59:10.268Z,63.16
2023-03-29T18:00:10.135Z,64.61
2023-03-29T18:01:10.180Z,63.33
2023-03-29T18:02:10.156Z,64.78
2023-03-29T18:03:10.150Z,67.35
2023-03-29T18:04:10.087Z,65.26
2023-03-29T18:05:10.056Z,68.64
2023-03-29T18:06:10.051Z,68.00
2023-03-29T18:07:10.029Z,65.74
2023-03-29T18:08:10.064Z,65.74
2023-03-29T18:09:09.989Z,64.45
2023-03-29T18:10:09.987Z,64.45
2023-03-29T18:11:09.970Z,66.23
2023-03-29T18:12:09.964Z,65.74
2023-03-29T18:13:09.953Z,63.49
2023-03-29T18:14:09.912Z,62.68
2023-03-29T18:15:09.907Z,65.26
2023-03-29T18:16:10.001Z,66.39
2023-03-29T18:17:09.928Z,64.78
2023-03-29T18:18:09.897Z,65.58
2023-03-29T18:19:09.822Z,63.00
2023-03-29T18:20:09.806Z,62.52
2023-03-29T18:21:09.783Z,62.84
2023-03-29T18:22:09.772Z,65.42
2023-03-29T18:23:09.796Z,66.39
2023-03-29T18:24:09.730Z,65.10
2023-03-29T18:25:09.763Z,65.26
2023-03-29T18:26:09.728Z,64.94
2023-03-29T18:27:09.679Z,64.29
2023-03-29T18:28:09.683Z,65.58
2023-03-29T18:29:09.968Z,65.74
2023-03-29T18:30:10.883Z,64.61
2023-03-29T18:31:09.655Z,61.39
2023-03-29T18:32:09.621Z,62.52
2023-03-29T18:33:09.652Z,66.71
2023-03-29T18:34:09.556Z,63.49
2023-03-29T18:35:09.545Z,64.61
2023-03-29T18:36:12.214Z,63.49
2023-03-29T18:37:10.531Z,64.61
2023-03-29T18:38:09.529Z,65.58
2023-03-29T18:39:09.485Z,65.26
2023-03-29T18:40:09.473Z,66.39
2023-03-29T18:41:09.449Z,63.97
2023-03-29T18:42:11.657Z,64.29
2023-03-29T18:43:09.449Z,62.20
2023-03-29T18:44:09.393Z,63.16
2023-03-29T18:45:09.364Z,66.06
2023-03-29T18:46:09.377Z,65.26
2023-03-29T18:47:09.472Z,63.16
2023-03-29T18:48:09.426Z,65.26
2023-03-29T18:49:09.325Z,64.94
2023-03-29T18:50:09.291Z,64.78
2023-03-29T18:51:09.359Z,64.94
2023-03-29T18:52:09.253Z,63.97
2023-03-29T18:53:09.284Z,62.68
2023-03-29T18:54:09.228Z,63.49
2023-03-29T18:55:09.230Z,64.61
2023-03-29T18:56:09.198Z,63.81
2023-03-29T18:57:09.285Z,62.84
2023-03-29T18:58:09.230Z,63.65
2023-03-29T18:59:09.161Z,63.49
2023-03-29T19:00:09.181Z,67.19
2023-03-29T19:01:09.120Z,63.97
2023-03-29T19:02:09.170Z,64.78
2023-03-29T19:03:09.223Z,64.78
2023-03-29T19:04:09.119Z,65.26
2023-03-29T19:05:09.067Z,66.23
2023-03-29T19:06:09.036Z,64.45
2023-03-29T19:07:09.031Z,62.68
2023-03-29T19:08:09.056Z,63.65
2023-03-29T19:09:09.005Z,64.94
2023-03-29T19:10:08.968Z,65.42
2023-03-29T19:11:08.930Z,65.10
2023-03-29T19:12:08.929Z,66.06
2023-03-29T19:13:08.897Z,64.61
2023-03-29T19:14:08.949Z,66.06
2023-03-29T19:15:08.976Z,62.68
2023-03-29T19:16:09.126Z,63.81
2023-03-29T19:17:08.831Z,64.61
2023-03-29T19:18:08.903Z,63.81
2023-03-29T19:19:08.840Z,65.58
2023-03-29T19:20:08.778Z,66.06
2023-03-29T19:21:08.756Z,66.23
2023-03-29T19:22:08.744Z,64.78
2023-03-29T19:23:08.743Z,62.04
2023-03-29T19:24:08.763Z,62.04
2023-03-29T19:25:08.712Z,65.26
2023-03-29T19:26:08.680Z,65.58
2023-03-29T19:27:10.708Z,64.78
2023-03-29T19:28:08.656Z,65.90
2023-03-29T19:29:08.656Z,65.26
2023-03-29T19:30:08.597Z,64.78
2023-03-29T19:31:09.654Z,66.06
2023-03-29T19:32:08.598Z,66.23
2023-03-29T19:33:08.635Z,64.29
2023-03-29T19:34:08.570Z,66.71
2023-03-29T19:35:08.532Z,65.58
2023-03-29T19:36:08.536Z,65.58
2023-03-29T19:37:08.494Z,64.61
2023-03-29T19:38:08.487Z,65.74
2023-03-29T19:39:08.489Z,63.97
2023-03-29T19:40:08.452Z,64.78
2023-03-29T19:41:08.416Z,62.68
2023-03-29T19:42:08.398Z,65.26
2023-03-29T19:43:08.383Z,66.06
2023-03-29T19:44:08.378Z,65.42
2023-03-29T19:45:09.349Z,65.26
2023-03-29T19:46:08.455Z,64.29
2023-03-29T19:47:08.345Z,63.97
2023-03-29T19:48:12.321Z,63.49
2023-03-29T19:49:09.373Z,65.90
2023-03-29T19:50:08.265Z,66.87
2023-03-29T19:51:08.249Z,65.58
2023-03-29T19:52:08.264Z,62.68
2023-03-29T19:53:08.216Z,63.49
2023-03-29T19:54:08.230Z,63.00
2023-03-29T19:55:08.178Z,63.00
2023-03-29T19:56:08.155Z,65.10
2023-03-29T19:57:08.158Z,64.94
2023-03-29T19:58:08.146Z,62.84
2023-03-29T19:59:08.172Z,63.16
2023-03-29T20:00:08.167Z,63.33
2023-03-29T20:01:08.073Z,62.68
2023-03-29T20:02:08.139Z,61.55
2023-03-29T20:03:08.078Z,63.00
2023-03-29T20:04:08.073Z,64.94
2023-03-29T20:05:08.026Z,65.26
2023-03-29T20:06:07.995Z,63.97
2023-03-29T20:07:07.972Z,63.65
2023-03-29T20:08:07.958Z,65.58
2023-03-29T20:09:07.982Z,60.91
2023-03-29T20:10:07.926Z,61.55
2023-03-29T20:11:07.907Z,60.26
2023-03-29T20:12:07.895Z,62.20
2023-03-29T20:13:07.881Z,63.81
2023-03-29T20:14:07.878Z,60.91
2023-03-29T20:15:07.852Z,62.04
2023-03-29T20:16:07.908Z,62.84
2023-03-29T20:17:07.797Z,64.78
2023-03-29T20:18:07.811Z,62.04
2023-03-29T20:19:07.808Z,61.87
2023-03-29T20:20:07.755Z,61.23
2023-03-29T20:21:07.749Z,62.36
2023-03-29T20:22:07.711Z,62.84
2023-03-29T20:23:07.715Z,60.75
2023-03-29T20:24:07.743Z,63.16
2023-03-29T20:25:07.685Z,64.78
2023-03-29T20:26:07.649Z,64.29
2023-03-29T20:27:07.641Z,61.39
2023-03-29T20:28:07.629Z,63.97
2023-03-29T20:29:07.677Z,65.26
2023-03-29T20:30:07.593Z,65.58
2023-03-29T20:31:07.564Z,63.00
2023-03-29T20:32:07.651Z,62.84
2023-03-29T20:33:07.581Z,60.42
2023-03-29T20:34:07.545Z,59.94
2023-03-29T20:35:07.493Z,61.07
2023-03-29T20:36:07.616Z,60.26
2023-03-29T20:37:07.506Z,58.97
2023-03-29T20:38:07.450Z,59.62
2023-03-29T20:39:07.464Z,62.20
2023-03-29T20:40:07.417Z,63.00
2023-03-29T20:41:07.388Z,60.42
2023-03-29T20:42:07.373Z,62.68
2023-03-29T20:43:08.382Z,63.97
2023-03-29T20:44:07.393Z,63.49
2023-03-29T20:45:07.321Z,62.04
2023-03-29T20:46:07.334Z,62.04
2023-03-29T20:47:07.294Z,62.04
2023-03-29T20:48:07.314Z,62.68
2023-03-29T20:49:07.364Z,62.68
2023-03-29T20:50:07.273Z,62.84
2023-03-29T20:51:07.236Z,62.84
2023-03-29T20:52:07.203Z,65.42
2023-03-29T20:53:07.197Z,61.39
2023-03-29T20:54:07.297Z,63.49
2023-03-29T20:55:07.160Z,62.68
2023-03-29T20:56:07.136Z,61.71
2023-03-29T20:57:07.156Z,61.87
2023-03-29T20:58:07.111Z,63.81
2023-03-29T20:59:07.132Z,62.68
2023-03-29T21:00:07.069Z,63.97
2023-03-29T21:01:07.237Z,61.71
2023-03-29T21:02:07.094Z,62.04
2023-03-29T21:03:07.094Z,63.00
2023-03-29T21:04:07.030Z,63.65
2023-03-29T21:05:06.990Z,63.97
2023-03-29T21:06:06.983Z,60.75
2023-03-29T21:07:07.025Z,57.85
2023-03-29T21:08:06.949Z,60.42
2023-03-29T21:09:06.976Z,62.04
2023-03-29T21:10:06.919Z,61.39
2023-03-29T21:11:06.881Z,63.16
2023-03-29T21:12:06.874Z,62.52
2023-03-29T21:13:06.852Z,62.52
2023-03-29T21:14:06.864Z,61.71
2023-03-29T21:15:06.809Z,61.71
2023-03-29T21:16:06.854Z,60.91
2023-03-29T21:17:06.812Z,63.49
2023-03-29T21:18:06.851Z,64.61
2023-03-29T21:19:06.778Z,61.87
2023-03-29T21:20:06.742Z,60.26
2023-03-29T21:21:06.726Z,61.23
2023-03-29T21:22:06.738Z,60.42
2023-03-29T21:23:39.056Z,63.00
2023-03-29T21:24:06.717Z,62.84
2023-03-29T21:25:06.677Z,60.91
2023-03-29T21:26:06.651Z,61.07
2023-03-29T21:27:06.616Z,61.23
2023-03-29T21:28:06.624Z,60.91
2023-03-29T21:29:06.632Z,60.42
2023-03-29T21:30:06.580Z,61.07
2023-03-29T21:31:06.816Z,62.52
2023-03-29T21:32:06.609Z,60.26
2023-03-29T21:33:06.586Z,61.71
2023-03-29T21:34:06.564Z,61.55
2023-03-29T21:35:07.490Z,61.87
2023-03-29T21:36:06.545Z,59.46
2023-03-29T21:37:06.478Z,60.75
2023-03-29T21:38:06.444Z,63.97
2023-03-29T21:39:06.459Z,62.84
2023-03-29T21:40:06.397Z,61.07
2023-03-29T21:41:06.610Z,60.59
2023-03-29T21:42:06.444Z,62.04
2023-03-29T21:43:06.379Z,59.62
2023-03-29T21:44:06.399Z,56.72
2023-03-29T21:45:06.324Z,60.10
2023-03-29T21:46:06.360Z,61.55
2023-03-29T21:47:06.358Z,62.68
2023-03-29T21:48:06.317Z,63.00
2023-03-29T21:49:06.316Z,60.75
2023-03-29T21:50:06.229Z,60.26
2023-03-29T21:51:06.483Z,58.97
2023-03-29T21:52:06.202Z,59.78
2023-03-29T21:53:06.182Z,56.72
2023-03-29T21:54:06.170Z,56.88
2023-03-29T21:55:07.178Z,60.59
2023-03-29T21:56:06.168Z,59.46
2023-03-29T21:57:06.157Z,62.84
2023-03-29T21:58:06.136Z,60.91
2023-03-29T21:59:06.086Z,61.55
2023-03-29T22:00:06.157Z,61.07
2023-03-29T22:01:06.286Z,62.52
2023-03-29T22:02:06.100Z,62.36
2023-03-29T22:03:06.037Z,64.29
2023-03-29T22:04:06.001Z,65.26
2023-03-29T22:05:06.008Z,61.87
2023-03-29T22:06:05.966Z,61.39
2023-03-29T22:07:05.965Z,59.62
2023-03-29T22:08:05.940Z,61.71
2023-03-29T22:09:05.923Z,62.20
2023-03-29T22:10:05.930Z,63.33
2023-03-29T22:11:07.537Z,62.04
2023-03-29T22:12:05.862Z,61.87
2023-03-29T22:13:05.900Z,60.91
2023-03-29T22:14:05.828Z,59.46
2023-03-29T22:15:05.872Z,61.23
2023-03-29T22:16:05.918Z,60.42
2023-03-29T22:17:05.833Z,60.26
2023-03-29T22:18:05.833Z,61.23
2023-03-29T22:19:05.759Z,57.52
2023-03-29T22:20:05.770Z,58.97
2023-03-29T22:21:05.829Z,60.10
2023-03-29T22:22:05.713Z,59.78
2023-03-29T22:23:05.715Z,60.59
2023-03-29T22:24:05.689Z,63.16
2023-03-29T22:25:05.733Z,62.52
2023-03-29T22:26:05.659Z,62.68
2023-03-29T22:27:05.622Z,61.23
2023-03-29T22:28:05.645Z,61.39
2023-03-29T22:29:05.703Z,59.94
2023-03-29T22:30:05.655Z,59.14
2023-03-29T22:31:05.693Z,61.71
2023-03-29T22:32:05.556Z,60.91
2023-03-29T22:33:05.560Z,59.46
2023-03-29T22:34:05.496Z,61.39
2023-03-29T22:35:05.528Z,58.65
2023-03-29T22:36:05.466Z,59.30
2023-03-29T22:37:05.456Z,61.07
2023-03-29T22:38:05.429Z,57.85
2023-03-29T22:39:05.421Z,61.39
2023-03-29T22:40:05.427Z,63.00
2023-03-29T22:41:05.669Z,60.26
2023-03-29T22:42:05.355Z,59.78
2023-03-29T22:43:05.540Z,60.75
2023-03-29T22:44:06.328Z,59.62
2023-03-29T22:45:05.356Z,60.10
2023-03-29T22:46:05.353Z,60.59
2023-03-29T22:47:05.272Z,60.10
2023-03-29T22:48:05.299Z,61.39
2023-03-29T22:49:05.279Z,60.75
2023-03-29T22:50:05.260Z,62.36
2023-03-29T22:51:05.525Z,59.94
2023-03-29T22:52:05.193Z,61.39
2023-03-29T22:53:05.188Z,62.68
2023-03-29T22:54:05.257Z,58.17
2023-03-29T22:55:05.193Z,59.62
2023-03-29T22:56:05.142Z,63.97
2023-03-29T22:57:05.157Z,62.68
2023-03-29T22:58:05.141Z,61.87
2023-03-29T22:59:05.080Z,61.55
2023-03-29T23:00:05.108Z,62.04
2023-03-29T23:01:05.391Z,64.78
2023-03-29T23:02:05.164Z,63.65
2023-03-29T23:03:05.083Z,61.87
2023-03-29T23:04:05.014Z,60.10
2023-03-29T23:05:05.032Z,59.46
2023-03-29T23:06:04.958Z,61.55
2023-03-29T23:07:04.982Z,62.52
2023-03-29T23:08:05.059Z,61.23
2023-03-29T23:09:04.931Z,58.33
2023-03-29T23:10:04.931Z,61.07
2023-03-29T23:11:05.051Z,60.10
2023-03-29T23:12:04.873Z,61.23
2023-03-29T23:13:04.855Z,60.59
2023-03-29T23:14:04.845Z,61.87
2023-03-29T23:15:04.837Z,59.78
2023-03-29T23:16:04.861Z,61.87
2023-03-29T23:17:04.815Z,62.04
2023-03-29T23:18:04.826Z,62.68
2023-03-29T23:19:04.796Z,63.49
2023-03-29T23:20:04.881Z,63.33
2023-03-29T23:21:05.035Z,63.00
2023-03-29T23:22:04.728Z,64.61
2023-03-29T23:23:04.664Z,64.13
2023-03-29T23:24:04.662Z,63.00
2023-03-29T23:25:04.680Z,60.91
2023-03-29T23:26:04.640Z,61.23
2023-03-29T23:27:04.618Z,59.94
2023-03-29T23:28:04.623Z,61.87
2023-03-29T23:29:04.586Z,62.04
2023-03-29T23:30:04.616Z,61.87
2023-03-29T23:31:04.782Z,61.07
2023-03-29T23:32:04.525Z,59.62
2023-03-29T23:33:05.601Z,60.75
2023-03-29T23:34:05.499Z,61.07
2023-03-29T23:35:04.514Z,59.94
2023-03-29T23:36:04.597Z,62.36
2023-03-29T23:37:04.439Z,63.49
2023-03-29T23:38:04.438Z,61.71
2023-03-29T23:39:04.409Z,60.91
2023-03-29T23:40:04.422Z,63.16
2023-03-29T23:41:04.536Z,60.75
2023-03-29T23:42:04.371Z,58.65
2023-03-29T23:43:04.334Z,57.69
2023-03-29T23:44:04.332Z,63.49
2023-03-29T23:45:04.337Z,61.87
2023-03-29T23:46:04.306Z,62.04
2023-03-29T23:47:04.412Z,61.39
2023-03-29T23:48:04.265Z,60.42
2023-03-29T23:49:04.230Z,60.59
2023-03-29T23:50:05.244Z,61.07
2023-03-29T23:51:04.345Z,58.49
2023-03-29T23:52:04.191Z,62.20
2023-03-29T23:53:04.153Z,61.39
2023-03-29T23:54:05.278Z,58.81
2023-03-29T23:55:04.173Z,59.46
2023-03-29T23:56:04.133Z,58.65
2023-03-29T23:57:04.137Z,59.78
2023-03-29T23:58:04.091Z,59.78
2023-03-29T23:59:04.067Z,60.75
